createdAt,value
2023-01-29T00:01:49.853Z,100.00
2023-01-29T00:04:53.732Z,100.00
2023-01-29T00:07:59.507Z,100.00
2023-01-29T00:11:02.921Z,100.00
2023-01-29T00:14:05.572Z,100.00
2023-01-29T00:17:11.107Z,100.00
2023-01-29T00:20:14.816Z,100.00
2023-01-29T00:23:17.916Z,100.00
2023-01-29T00:26:20.184Z,100.00
2023-01-29T00:29:23.283Z,100.00
2023-01-29T00:32:25.764Z,100.00
2023-01-29T00:35:28.545Z,100.00
2023-01-29T00:38:33.411Z,100.00
2023-01-29T00:41:55.552Z,100.00
2023-01-29T00:44:57.909Z,100.00
2023-01-29T00:48:00.498Z,100.00
2023-01-29T00:51:03.676Z,100.00
2023-01-29T00:54:06.955Z,100.00
2023-01-29T00:57:09.404Z,100.00
2023-01-29T01:00:14.918Z,100.00
2023-01-29T01:03:18.064Z,100.00
2023-01-29T01:06:23.022Z,100.00
2023-01-29T01:09:43.854Z,100.00
2023-01-29T01:12:47.071Z,100.00
2023-01-29T01:15:49.456Z,100.00
2023-01-29T01:18:52.258Z,100.00
2023-01-29T01:21:54.960Z,100.00
2023-01-29T01:24:57.698Z,100.00
2023-01-29T01:28:03.319Z,100.00
2023-01-29T01:31:10.609Z,100.00
2023-01-29T01:34:12.955Z,100.00
2023-01-29T01:37:15.621Z,100.00
2023-01-29T01:40:19.251Z,100.00
2023-01-29T01:43:22.389Z,100.00
2023-01-29T01:46:26.022Z,100.00
2023-01-29T01:49:28.728Z,100.00
2023-01-29T01:52:32.366Z,100.00
2023-01-29T01:55:36.929Z,100.00
2023-01-29T01:58:45.335Z,100.00
2023-01-29T02:01:51.135Z,100.00
2023-01-29T02:05:12.610Z,100.00
2023-01-29T02:08:33.606Z,100.00
2023-01-29T02:11:36.768Z,100.00
2023-01-29T02:14:40.498Z,100.00
2023-01-29T02:17:46.052Z,100.00
2023-01-29T02:21:07.726Z,100.00
2023-01-29T02:24:28.854Z,100.00
2023-01-29T02:27:40.641Z,100.00
2023-01-29T02:30:49.100Z,100.00
2023-01-29T02:34:12.268Z,100.00
2023-01-29T02:37:15.348Z,100.00
2023-01-29T02:40:27.313Z,100.00
2023-01-29T02:43:35.595Z,100.00
2023-01-29T02:46:45.816Z,100.00
2023-01-29T02:50:07.075Z,100.00
2023-01-29T02:53:36.957Z,100.00
2023-01-29T02:56:44.674Z,100.00
2023-01-29T02:59:50.749Z,100.00
2023-01-29T03:03:00.066Z,100.00
2023-01-29T03:06:06.736Z,100.00
2023-01-29T03:09:12.985Z,100.00
2023-01-29T03:12:28.562Z,100.00
2023-01-29T03:15:39.226Z,100.00
2023-01-29T03:18:46.906Z,100.00
2023-01-29T03:21:59.019Z,100.00
2023-01-29T03:25:21.770Z,100.00
2023-01-29T03:28:42.681Z,100.00
2023-01-29T03:32:06.606Z,100.00
2023-01-29T03:35:10.581Z,100.00
2023-01-29T03:38:13.241Z,100.00
2023-01-29T03:41:19.581Z,100.00
2023-01-29T03:44:37.673Z,100.00
2023-01-29T03:47:56.713Z,100.00
2023-01-29T03:51:10.317Z,100.00
2023-01-29T03:54:18.507Z,100.00
2023-01-29T03:57:24.395Z,100.00
2023-01-29T04:00:30.137Z,100.00
2023-01-29T04:03:47.984Z,100.00
2023-01-29T04:06:53.148Z,100.00
2023-01-29T04:10:05.618Z,100.00
2023-01-29T04:13:11.713Z,100.00
2023-01-29T04:16:18.012Z,100.00
2023-01-29T04:19:22.856Z,100.00
2023-01-29T04:22:32.052Z,100.00
2023-01-29T04:25:39.595Z,100.00
2023-01-29T04:28:51.397Z,100.00
2023-01-29T04:31:54.063Z,100.00
2023-01-29T04:34:56.820Z,100.00
2023-01-29T04:38:12.628Z,100.00
2023-01-29T04:41:22.557Z,100.00
2023-01-29T04:44:27.724Z,100.00
2023-01-29T04:47:49.887Z,100.00
2023-01-29T04:51:01.501Z,100.00
2023-01-29T04:54:07.479Z,100.00
2023-01-29T04:57:28.064Z,100.00
2023-01-29T05:00:33.684Z,100.00
2023-01-29T05:03:37.559Z,100.00
2023-01-29T05:06:40.542Z,100.00
2023-01-29T05:09:45.184Z,100.00
2023-01-29T05:12:50.365Z,100.00
2023-01-29T05:15:56.610Z,100.00
2023-01-29T05:18:59.240Z,100.00
2023-01-29T05:22:05.417Z,100.00
2023-01-29T05:25:25.242Z,100.00
2023-01-29T05:28:27.774Z,100.00
2023-01-29T05:31:30.493Z,100.00
2023-01-29T05:34:32.901Z,100.00
2023-01-29T05:37:35.527Z,100.00
2023-01-29T05:40:39.249Z,100.00
2023-01-29T05:43:41.898Z,100.00
2023-01-29T05:46:45.116Z,100.00
2023-01-29T05:49:47.848Z,100.00
2023-01-29T05:52:50.206Z,100.00
2023-01-29T05:55:52.844Z,100.00
2023-01-29T05:58:55.646Z,100.00
2023-01-29T06:01:58.432Z,100.00
2023-01-29T06:05:01.445Z,100.00
2023-01-29T06:08:03.980Z,100.00
2023-01-29T06:11:09.579Z,100.00
2023-01-29T06:14:12.030Z,100.00
2023-01-29T06:17:14.716Z,100.00
2023-01-29T06:20:18.096Z,100.00
2023-01-29T06:23:21.054Z,100.00
2023-01-29T06:26:23.461Z,100.00
2023-01-29T06:29:26.401Z,100.00
2023-01-29T06:32:28.825Z,100.00
2023-01-29T06:35:31.552Z,100.00
2023-01-29T06:38:33.893Z,100.00
2023-01-29T06:41:36.503Z,100.00
2023-01-29T06:44:38.822Z,100.00
2023-01-29T06:47:41.436Z,100.00
2023-01-29T06:50:43.857Z,100.00
2023-01-29T06:53:48.603Z,100.00
2023-01-29T06:56:51.624Z,100.00
2023-01-29T06:59:54.355Z,100.00
2023-01-29T07:02:56.721Z,100.00
2023-01-29T07:05:59.672Z,100.00
2023-01-29T07:09:03.077Z,100.00
2023-01-29T07:12:05.740Z,100.00
2023-01-29T07:15:08.389Z,100.00
2023-01-29T07:18:13.801Z,100.00
2023-01-29T07:21:16.273Z,100.00
2023-01-29T07:24:19.396Z,100.00
2023-01-29T07:27:21.829Z,100.00
2023-01-29T07:30:24.929Z,100.00
2023-01-29T07:33:27.468Z,100.00
2023-01-29T07:36:32.573Z,100.00
2023-01-29T07:39:35.205Z,100.00
2023-01-29T07:42:42.260Z,100.00
2023-01-29T07:45:44.675Z,100.00
2023-01-29T07:48:47.344Z,100.00
2023-01-29T07:51:49.684Z,100.00
2023-01-29T07:54:52.306Z,100.00
2023-01-29T07:58:02.096Z,100.00
2023-01-29T08:01:07.518Z,100.00
2023-01-29T08:04:10.221Z,100.00
2023-01-29T08:07:12.543Z,100.00
2023-01-29T08:10:16.119Z,100.00
2023-01-29T08:13:19.822Z,100.00
2023-01-29T08:16:22.544Z,100.00
2023-01-29T08:19:24.983Z,100.00
2023-01-29T08:22:27.580Z,100.00
2023-01-29T08:25:30.400Z,100.00
2023-01-29T08:28:33.565Z,100.00
2023-01-29T08:31:37.411Z,100.00
2023-01-29T08:34:40.037Z,100.00
2023-01-29T08:37:42.394Z,100.00
2023-01-29T08:40:45.180Z,100.00
2023-01-29T08:43:47.536Z,100.00
2023-01-29T08:46:50.206Z,100.00
2023-01-29T08:49:52.535Z,100.00
2023-01-29T08:52:57.697Z,100.00
2023-01-29T08:56:00.097Z,100.00
2023-01-29T08:59:02.764Z,100.00
2023-01-29T09:02:05.238Z,100.00
2023-01-29T09:05:08.111Z,100.00
2023-01-29T09:08:10.578Z,100.00
2023-01-29T09:11:13.689Z,100.00
2023-01-29T09:14:16.610Z,100.00
2023-01-29T09:17:19.754Z,100.00
2023-01-29T09:20:22.421Z,99.44
2023-01-29T09:23:25.662Z,98.91
2023-01-29T09:26:28.037Z,98.79
2023-01-29T09:29:30.962Z,99.46
2023-01-29T09:32:53.701Z,97.87
2023-01-29T09:35:57.045Z,97.26
2023-01-29T09:38:59.645Z,95.75
2023-01-29T09:42:05.639Z,95.63
2023-01-29T09:45:37.772Z,95.94
2023-01-29T09:48:41.303Z,95.57
2023-01-29T09:51:46.725Z,94.78
2023-01-29T09:55:16.027Z,94.54
2023-01-29T09:58:21.503Z,94.61
2023-01-29T10:01:41.973Z,94.17
2023-01-29T10:04:50.716Z,93.43
2023-01-29T10:07:56.616Z,92.77
2023-01-29T10:11:11.790Z,92.79
2023-01-29T10:14:24.575Z,90.76
2023-01-29T10:17:36.276Z,91.07
2023-01-29T10:20:51.180Z,91.44
2023-01-29T10:23:58.112Z,90.36
2023-01-29T10:27:01.113Z,90.13
2023-01-29T10:30:06.940Z,88.28
2023-01-29T10:33:15.020Z,89.59
2023-01-29T10:36:28.668Z,89.10
2023-01-29T10:39:31.443Z,88.25
2023-01-29T10:42:41.376Z,87.64
2023-01-29T10:45:49.556Z,90.71
2023-01-29T10:48:52.272Z,87.26
2023-01-29T10:51:54.683Z,88.46
2023-01-29T10:55:04.321Z,88.83
2023-01-29T10:58:07.013Z,88.98
2023-01-29T11:01:10.694Z,88.75
2023-01-29T11:04:14.185Z,87.62
2023-01-29T11:07:18.552Z,87.19
2023-01-29T11:10:22.434Z,85.96
2023-01-29T11:13:29.892Z,85.76
2023-01-29T11:16:39.835Z,84.96
2023-01-29T11:19:43.606Z,86.14
2023-01-29T11:22:53.886Z,84.01
2023-01-29T11:25:57.910Z,82.71
2023-01-29T11:29:00.271Z,81.39
2023-01-29T11:32:07.316Z,81.07
2023-01-29T11:35:12.471Z,80.90
2023-01-29T11:38:28.611Z,80.18
2023-01-29T11:41:42.235Z,80.52
2023-01-29T11:44:45.136Z,81.04
2023-01-29T11:47:54.645Z,80.13
2023-01-29T11:51:00.645Z,79.12
2023-01-29T11:54:04.458Z,76.57
2023-01-29T11:57:19.238Z,77.87
2023-01-29T12:00:21.914Z,76.30
2023-01-29T12:03:27.984Z,77.40
2023-01-29T12:06:33.264Z,76.25
2023-01-29T12:09:39.373Z,74.64
2023-01-29T12:12:42.262Z,75.23
2023-01-29T12:15:44.876Z,75.36
2023-01-29T12:18:53.269Z,76.14
2023-01-29T12:21:56.022Z,74.13
2023-01-29T12:25:17.949Z,74.63
2023-01-29T12:28:26.750Z,72.74
2023-01-29T12:31:47.959Z,72.71
2023-01-29T12:34:55.530Z,73.69
2023-01-29T12:37:58.362Z,72.51
2023-01-29T12:41:06.800Z,74.35
2023-01-29T12:44:16.276Z,71.86
2023-01-29T12:47:25.260Z,72.85
2023-01-29T12:50:29.686Z,72.67
2023-01-29T12:53:34.987Z,72.83
2023-01-29T12:56:56.118Z,73.59
2023-01-29T13:00:02.512Z,74.64
2023-01-29T13:03:08.090Z,73.26
2023-01-29T13:06:15.219Z,73.35
2023-01-29T13:09:20.849Z,73.95
2023-01-29T13:12:24.337Z,74.67
2023-01-29T13:15:31.267Z,73.72
2023-01-29T13:18:46.168Z,73.35
2023-01-29T13:21:48.872Z,72.81
2023-01-29T13:25:03.558Z,73.36
2023-01-29T13:28:16.275Z,74.03
2023-01-29T13:31:29.755Z,73.44
2023-01-29T13:34:45.382Z,71.58
2023-01-29T13:37:50.507Z,71.62
2023-01-29T13:40:54.721Z,72.23
2023-01-29T13:43:57.529Z,71.83
2023-01-29T13:47:05.401Z,73.70
2023-01-29T13:50:27.712Z,72.16
2023-01-29T13:53:38.160Z,73.12
2023-01-29T13:56:43.807Z,74.16
2023-01-29T13:59:54.576Z,74.34
2023-01-29T14:03:00.398Z,75.95
2023-01-29T14:06:03.117Z,75.47
2023-01-29T14:09:25.755Z,74.78
2023-01-29T14:12:33.052Z,75.30
2023-01-29T14:15:36.681Z,74.13
2023-01-29T14:18:47.064Z,72.76
2023-01-29T14:21:50.927Z,73.34
2023-01-29T14:24:55.659Z,72.86
2023-01-29T14:27:59.539Z,72.42
2023-01-29T14:31:03.891Z,72.28
2023-01-29T14:34:12.739Z,73.58
2023-01-29T14:37:15.374Z,74.38
2023-01-29T14:40:17.777Z,75.25
2023-01-29T14:43:21.747Z,76.79
2023-01-29T14:46:33.295Z,77.24
2023-01-29T14:49:55.874Z,77.34
2023-01-29T14:53:17.323Z,78.49
2023-01-29T14:56:22.907Z,79.64
2023-01-29T14:59:34.385Z,80.76
2023-01-29T15:02:40.396Z,81.32
2023-01-29T15:05:43.314Z,81.02
2023-01-29T15:09:10.282Z,81.30
2023-01-29T15:12:32.835Z,81.37
2023-01-29T15:15:44.989Z,81.96
2023-01-29T15:18:50.528Z,81.81
2023-01-29T15:22:02.954Z,82.05
2023-01-29T15:25:15.351Z,83.01
2023-01-29T15:28:18.370Z,83.58
2023-01-29T15:31:28.266Z,84.44
2023-01-29T15:34:31.289Z,85.32
2023-01-29T15:37:35.231Z,84.63
2023-01-29T15:40:38.779Z,86.00
2023-01-29T15:43:45.930Z,86.73
2023-01-29T15:46:51.261Z,86.38
2023-01-29T15:49:55.015Z,86.72
2023-01-29T15:53:00.319Z,86.97
2023-01-29T15:56:07.792Z,86.94
2023-01-29T15:59:16.394Z,87.90
2023-01-29T16:02:28.258Z,88.04
2023-01-29T16:05:33.145Z,88.39
2023-01-29T16:08:38.705Z,89.44
2023-01-29T16:11:41.749Z,89.36
2023-01-29T16:14:45.991Z,89.69
2023-01-29T16:17:50.517Z,90.56
2023-01-29T16:20:54.524Z,90.18
2023-01-29T16:24:02.573Z,90.80
2023-01-29T16:27:13.660Z,89.72
2023-01-29T16:30:17.607Z,89.81
2023-01-29T16:33:21.427Z,89.76
2023-01-29T16:36:25.856Z,90.84
2023-01-29T16:39:32.625Z,90.68
2023-01-29T16:42:37.768Z,89.97
2023-01-29T16:45:40.407Z,89.86
2023-01-29T16:48:43.355Z,88.14
2023-01-29T16:51:46.230Z,87.77
2023-01-29T16:54:49.388Z,87.64
2023-01-29T16:57:53.720Z,87.82
2023-01-29T17:01:05.009Z,88.90
2023-01-29T17:04:13.477Z,88.45
2023-01-29T17:07:21.252Z,89.05
2023-01-29T17:10:25.541Z,89.21
2023-01-29T17:13:40.309Z,89.84
2023-01-29T17:16:50.997Z,90.85
2023-01-29T17:19:53.948Z,91.86
2023-01-29T17:22:56.665Z,92.67
2023-01-29T17:25:59.600Z,91.51
2023-01-29T17:29:02.386Z,92.36
2023-01-29T17:32:05.395Z,93.21
2023-01-29T17:35:09.179Z,93.59
2023-01-29T17:38:24.977Z,94.06
2023-01-29T17:41:30.135Z,94.02
2023-01-29T17:44:33.112Z,95.19
2023-01-29T17:47:35.647Z,94.64
2023-01-29T17:50:39.846Z,95.23
2023-01-29T17:53:46.899Z,95.55
2023-01-29T17:56:50.644Z,95.19
2023-01-29T17:59:53.263Z,95.30
2023-01-29T18:02:57.980Z,95.60
2023-01-29T18:06:00.604Z,95.25
2023-01-29T18:09:03.876Z,95.67
2023-01-29T18:12:09.825Z,96.21
2023-01-29T18:15:13.046Z,96.47
2023-01-29T18:18:18.757Z,96.31
2023-01-29T18:21:22.655Z,96.16
2023-01-29T18:24:26.679Z,96.57
2023-01-29T18:27:29.448Z,96.52
2023-01-29T18:30:32.848Z,97.40
2023-01-29T18:33:35.567Z,97.83
2023-01-29T18:36:38.538Z,97.91
2023-01-29T18:39:41.129Z,96.92
2023-01-29T18:42:45.492Z,97.08
2023-01-29T18:45:48.857Z,97.16
2023-01-29T18:48:51.583Z,97.14
2023-01-29T18:51:54.484Z,96.37
2023-01-29T18:54:57.456Z,96.22
2023-01-29T18:58:26.869Z,96.82
2023-01-29T19:01:23.597Z,96.85
2023-01-29T19:04:26.658Z,97.60
2023-01-29T19:07:29.495Z,97.15
2023-01-29T19:10:33.165Z,97.65
2023-01-29T19:13:36.734Z,97.89
2023-01-29T19:16:41.247Z,98.60
2023-01-29T19:19:44.311Z,98.75
2023-01-29T19:22:47.366Z,98.56
2023-01-29T19:25:50.206Z,98.78
2023-01-29T19:28:53.392Z,98.59
2023-01-29T19:31:56.504Z,98.90
2023-01-29T19:34:59.999Z,98.68
2023-01-29T19:38:04.163Z,98.56
2023-01-29T19:41:07.011Z,98.96
2023-01-29T19:44:10.537Z,98.94
2023-01-29T19:47:12.947Z,99.08
2023-01-29T19:50:15.767Z,99.70
2023-01-29T19:53:18.407Z,100.00
2023-01-29T19:56:21.264Z,100.00
2023-01-29T19:59:24.032Z,100.00
2023-01-29T20:02:28.367Z,100.00
2023-01-29T20:05:31.433Z,100.00
2023-01-29T20:08:34.686Z,100.00
2023-01-29T20:11:37.604Z,100.00
2023-01-29T20:14:45.624Z,100.00
2023-01-29T20:17:48.633Z,100.00
2023-01-29T20:20:53.069Z,100.00
2023-01-29T20:23:56.490Z,100.00
2023-01-29T20:26:58.946Z,100.00
2023-01-29T20:30:01.711Z,100.00
2023-01-29T20:33:06.213Z,100.00
2023-01-29T20:36:10.110Z,100.00
2023-01-29T20:39:12.834Z,100.00
2023-01-29T20:42:16.270Z,100.00
2023-01-29T20:45:19.294Z,100.00
2023-01-29T20:48:21.996Z,100.00
2023-01-29T20:51:24.613Z,100.00
2023-01-29T20:54:29.964Z,100.00
2023-01-29T20:57:36.804Z,100.00
2023-01-29T21:00:39.897Z,100.00
2023-01-29T21:03:42.284Z,100.00
2023-01-29T21:06:45.242Z,100.00
2023-01-29T21:09:47.932Z,100.00
2023-01-29T21:12:51.868Z,100.00
2023-01-29T21:15:54.501Z,100.00
2023-01-29T21:18:58.298Z,100.00
2023-01-29T21:22:02.467Z,100.00
2023-01-29T21:25:05.481Z,100.00
2023-01-29T21:28:08.059Z,100.00
2023-01-29T21:31:12.261Z,100.00
2023-01-29T21:34:14.784Z,100.00
2023-01-29T21:37:17.389Z,100.00
2023-01-29T21:40:21.292Z,100.00
2023-01-29T21:43:23.924Z,100.00
2023-01-29T21:46:26.291Z,100.00
2023-01-29T21:49:28.961Z,100.00
2023-01-29T21:52:31.389Z,100.00
2023-01-29T21:55:34.274Z,100.00
2023-01-29T21:58:36.571Z,100.00
2023-01-29T22:01:39.351Z,100.00
2023-01-29T22:04:42.509Z,100.00
2023-01-29T22:07:44.816Z,100.00
2023-01-29T22:10:47.737Z,100.00
2023-01-29T22:13:50.617Z,100.00
2023-01-29T22:16:53.257Z,100.00
2023-01-29T22:19:55.884Z,100.00
2023-01-29T22:22:59.429Z,100.00
2023-01-29T22:26:02.366Z,100.00
2023-01-29T22:29:05.259Z,100.00
2023-01-29T22:32:07.898Z,100.00
2023-01-29T22:35:10.664Z,100.00
2023-01-29T22:38:12.989Z,100.00
2023-01-29T22:41:15.811Z,100.00
2023-01-29T22:44:18.366Z,100.00
2023-01-29T22:47:21.006Z,100.00
2023-01-29T22:50:23.366Z,100.00
2023-01-29T22:53:26.194Z,100.00
2023-01-29T22:56:30.633Z,100.00
2023-01-29T22:59:33.392Z,100.00
2023-01-29T23:02:36.626Z,100.00
2023-01-29T23:05:39.265Z,100.00
2023-01-29T23:08:42.279Z,100.00
2023-01-29T23:11:45.040Z,100.00
2023-01-29T23:14:47.517Z,100.00
2023-01-29T23:17:50.152Z,100.00
2023-01-29T23:20:56.192Z,100.00
2023-01-29T23:23:59.696Z,100.00
2023-01-29T23:27:17.513Z,100.00
2023-01-29T23:30:20.421Z,100.00
2023-01-29T23:33:23.565Z,100.00
2023-01-29T23:36:26.184Z,100.00
2023-01-29T23:39:28.625Z,100.00
2023-01-29T23:42:31.390Z,100.00
2023-01-29T23:45:33.773Z,100.00
2023-01-29T23:48:36.787Z,100.00
2023-01-29T23:51:39.093Z,100.00
2023-01-29T23:54:41.886Z,100.00
2023-01-29T23:57:44.209Z,100.00
